sensor_id;sensor_type;location;lat;lon;timestamp;P1;durP1;ratioP1;P2;durP2;ratioP2
9597;SDS011;4837;50.890;4.724;2023-07-22T00:01:02;8.40;;;5.97;;
9597;SDS011;4837;50.890;4.724;2023-07-22T00:03:28;7.47;;;5.70;;
9597;SDS011;4837;50.890;4.724;2023-07-22T00:06:05;7.15;;;6.40;;
9597;SDS011;4837;50.890;4.724;2023-07-22T00:08:31;7.60;;;6.53;;
9597;SDS011;4837;50.890;4.724;2023-07-22T00:10:58;6.85;;;6.15;;
9597;SDS011;4837;50.890;4.724;2023-07-22T00:13:24;8.82;;;6.90;;
9597;SDS011;4837;50.890;4.724;2023-07-22T00:15:54;7.03;;;6.30;;
9597;SDS011;4837;50.890;4.724;2023-07-22T00:18:20;11.07;;;6.40;;
9597;SDS011;4837;50.890;4.724;2023-07-22T00:20:46;7.78;;;6.50;;
9597;SDS011;4837;50.890;4.724;2023-07-22T00:23:13;7.25;;;6.47;;
9597;SDS011;4837;50.890;4.724;2023-07-22T00:25:40;9.00;;;7.00;;
9597;SDS011;4837;50.890;4.724;2023-07-22T00:28:06;7.22;;;6.28;;
9597;SDS011;4837;50.890;4.724;2023-07-22T00:30:32;9.23;;;7.20;;
9597;SDS011;4837;50.890;4.724;2023-07-22T00:33:00;7.90;;;6.50;;
9597;SDS011;4837;50.890;4.724;2023-07-22T00:35:26;7.35;;;6.43;;
9597;SDS011;4837;50.890;4.724;2023-07-22T00:37:52;8.15;;;7.20;;
9597;SDS011;4837;50.890;4.724;2023-07-22T00:40:18;8.55;;;7.63;;
9597;SDS011;4837;50.890;4.724;2023-07-22T00:42:44;7.65;;;6.53;;
9597;SDS011;4837;50.890;4.724;2023-07-22T00:45:11;7.45;;;6.15;;
9597;SDS011;4837;50.890;4.724;2023-07-22T00:47:37;8.50;;;7.00;;
9597;SDS011;4837;50.890;4.724;2023-07-22T00:50:04;7.28;;;6.50;;
9597;SDS011;4837;50.890;4.724;2023-07-22T00:52:31;9.80;;;6.70;;
9597;SDS011;4837;50.890;4.724;2023-07-22T00:54:58;8.05;;;6.45;;
9597;SDS011;4837;50.890;4.724;2023-07-22T00:57:24;7.75;;;6.53;;
9597;SDS011;4837;50.890;4.724;2023-07-22T00:59:51;9.20;;;7.18;;
9597;SDS011;4837;50.890;4.724;2023-07-22T01:02:20;8.45;;;6.70;;
9597;SDS011;4837;50.890;4.724;2023-07-22T01:04:46;9.07;;;7.35;;
9597;SDS011;4837;50.890;4.724;2023-07-22T01:07:12;10.05;;;7.45;;
9597;SDS011;4837;50.890;4.724;2023-07-22T01:09:40;10.32;;;7.70;;
9597;SDS011;4837;50.890;4.724;2023-07-22T01:12:07;8.93;;;7.30;;
9597;SDS011;4837;50.890;4.724;2023-07-22T01:14:34;7.60;;;6.65;;
9597;SDS011;4837;50.890;4.724;2023-07-22T01:17:03;9.38;;;6.95;;
9597;SDS011;4837;50.890;4.724;2023-07-22T01:19:30;8.07;;;6.90;;
9597;SDS011;4837;50.890;4.724;2023-07-22T01:22:01;9.07;;;7.50;;
9597;SDS011;4837;50.890;4.724;2023-07-22T01:24:28;9.07;;;7.05;;
9597;SDS011;4837;50.890;4.724;2023-07-22T01:26:54;10.02;;;7.97;;
9597;SDS011;4837;50.890;4.724;2023-07-22T01:29:23;9.05;;;7.93;;
9597;SDS011;4837;50.890;4.724;2023-07-22T01:31:50;9.25;;;8.13;;
9597;SDS011;4837;50.890;4.724;2023-07-22T01:34:17;11.00;;;7.78;;
9597;SDS011;4837;50.890;4.724;2023-07-22T01:36:44;10.00;;;7.97;;
9597;SDS011;4837;50.890;4.724;2023-07-22T01:39:10;10.52;;;8.32;;
9597;SDS011;4837;50.890;4.724;2023-07-22T01:41:37;12.07;;;7.93;;
9597;SDS011;4837;50.890;4.724;2023-07-22T01:44:03;10.43;;;8.23;;
9597;SDS011;4837;50.890;4.724;2023-07-22T01:46:29;12.27;;;8.02;;
9597;SDS011;4837;50.890;4.724;2023-07-22T01:48:55;11.13;;;8.45;;
9597;SDS011;4837;50.890;4.724;2023-07-22T01:51:22;10.43;;;8.02;;
9597;SDS011;4837;50.890;4.724;2023-07-22T01:53:48;12.77;;;8.55;;
9597;SDS011;4837;50.890;4.724;2023-07-22T01:56:14;11.15;;;8.30;;
9597;SDS011;4837;50.890;4.724;2023-07-22T01:58:45;11.77;;;8.90;;
9597;SDS011;4837;50.890;4.724;2023-07-22T02:01:11;11.18;;;8.18;;
9597;SDS011;4837;50.890;4.724;2023-07-22T02:03:41;10.13;;;8.70;;
9597;SDS011;4837;50.890;4.724;2023-07-22T02:06:07;13.50;;;9.02;;
9597;SDS011;4837;50.890;4.724;2023-07-22T02:08:34;12.40;;;8.93;;
9597;SDS011;4837;50.890;4.724;2023-07-22T02:11:05;10.90;;;9.18;;
9597;SDS011;4837;50.890;4.724;2023-07-22T02:13:32;12.60;;;8.85;;
9597;SDS011;4837;50.890;4.724;2023-07-22T02:15:59;10.43;;;8.70;;
9597;SDS011;4837;50.890;4.724;2023-07-22T02:18:26;11.27;;;8.65;;
9597;SDS011;4837;50.890;4.724;2023-07-22T02:20:52;11.30;;;8.85;;
9597;SDS011;4837;50.890;4.724;2023-07-22T02:23:19;12.75;;;8.98;;
9597;SDS011;4837;50.890;4.724;2023-07-22T02:25:52;12.00;;;8.75;;
9597;SDS011;4837;50.890;4.724;2023-07-22T02:28:19;12.00;;;8.77;;
9597;SDS011;4837;50.890;4.724;2023-07-22T02:30:50;11.15;;;8.73;;
9597;SDS011;4837;50.890;4.724;2023-07-22T02:33:17;11.30;;;8.88;;
9597;SDS011;4837;50.890;4.724;2023-07-22T02:35:44;12.48;;;8.60;;
9597;SDS011;4837;50.890;4.724;2023-07-22T02:38:10;12.80;;;8.88;;
9597;SDS011;4837;50.890;4.724;2023-07-22T02:40:37;12.18;;;9.27;;
9597;SDS011;4837;50.890;4.724;2023-07-22T02:43:03;11.15;;;8.93;;
9597;SDS011;4837;50.890;4.724;2023-07-22T02:45:30;12.20;;;9.77;;
9597;SDS011;4837;50.890;4.724;2023-07-22T02:47:56;13.20;;;9.15;;
9597;SDS011;4837;50.890;4.724;2023-07-22T02:50:23;11.95;;;9.27;;
9597;SDS011;4837;50.890;4.724;2023-07-22T02:52:49;13.30;;;9.25;;
9597;SDS011;4837;50.890;4.724;2023-07-22T02:55:16;12.57;;;9.27;;
9597;SDS011;4837;50.890;4.724;2023-07-22T02:57:45;15.23;;;9.18;;
9597;SDS011;4837;50.890;4.724;2023-07-22T03:00:12;12.15;;;9.15;;
9597;SDS011;4837;50.890;4.724;2023-07-22T03:02:39;14.15;;;9.38;;
9597;SDS011;4837;50.890;4.724;2023-07-22T03:05:06;16.17;;;9.13;;
9597;SDS011;4837;50.890;4.724;2023-07-22T03:07:33;10.98;;;9.18;;
9597;SDS011;4837;50.890;4.724;2023-07-22T03:09:59;14.10;;;9.65;;
9597;SDS011;4837;50.890;4.724;2023-07-22T03:12:26;12.88;;;9.23;;
9597;SDS011;4837;50.890;4.724;2023-07-22T03:14:52;12.63;;;9.05;;
9597;SDS011;4837;50.890;4.724;2023-07-22T03:17:18;13.13;;;9.45;;
9597;SDS011;4837;50.890;4.724;2023-07-22T03:19:45;14.50;;;10.40;;
9597;SDS011;4837;50.890;4.724;2023-07-22T03:22:13;12.77;;;9.27;;
9597;SDS011;4837;50.890;4.724;2023-07-22T03:24:39;12.55;;;9.82;;
9597;SDS011;4837;50.890;4.724;2023-07-22T03:27:06;13.40;;;9.55;;
9597;SDS011;4837;50.890;4.724;2023-07-22T03:29:32;15.40;;;10.02;;
9597;SDS011;4837;50.890;4.724;2023-07-22T03:31:58;14.57;;;9.30;;
9597;SDS011;4837;50.890;4.724;2023-07-22T03:34:26;16.15;;;10.18;;
9597;SDS011;4837;50.890;4.724;2023-07-22T03:36:52;14.20;;;9.68;;
9597;SDS011;4837;50.890;4.724;2023-07-22T03:39:19;14.83;;;10.13;;
9597;SDS011;4837;50.890;4.724;2023-07-22T03:41:45;15.85;;;10.43;;
9597;SDS011;4837;50.890;4.724;2023-07-22T03:44:11;13.32;;;10.13;;
9597;SDS011;4837;50.890;4.724;2023-07-22T03:46:38;17.17;;;10.55;;
9597;SDS011;4837;50.890;4.724;2023-07-22T03:49:04;16.98;;;10.30;;
9597;SDS011;4837;50.890;4.724;2023-07-22T03:51:30;15.15;;;10.27;;
9597;SDS011;4837;50.890;4.724;2023-07-22T03:53:57;15.13;;;10.77;;
9597;SDS011;4837;50.890;4.724;2023-07-22T03:56:23;15.48;;;10.35;;
9597;SDS011;4837;50.890;4.724;2023-07-22T03:58:50;13.77;;;10.57;;
9597;SDS011;4837;50.890;4.724;2023-07-22T04:01:16;14.95;;;9.95;;
9597;SDS011;4837;50.890;4.724;2023-07-22T04:03:42;15.55;;;10.27;;
9597;SDS011;4837;50.890;4.724;2023-07-22T04:06:08;15.05;;;9.90;;
9597;SDS011;4837;50.890;4.724;2023-07-22T04:08:34;20.23;;;11.88;;
9597;SDS011;4837;50.890;4.724;2023-07-22T04:11:01;15.82;;;10.38;;
9597;SDS011;4837;50.890;4.724;2023-07-22T04:13:27;15.20;;;9.93;;
9597;SDS011;4837;50.890;4.724;2023-07-22T04:15:53;17.00;;;10.65;;
9597;SDS011;4837;50.890;4.724;2023-07-22T04:18:20;19.90;;;11.43;;
9597;SDS011;4837;50.890;4.724;2023-07-22T04:20:46;13.80;;;10.23;;
9597;SDS011;4837;50.890;4.724;2023-07-22T04:23:15;15.73;;;10.10;;
9597;SDS011;4837;50.890;4.724;2023-07-22T04:25:44;18.33;;;10.35;;
9597;SDS011;4837;50.890;4.724;2023-07-22T04:28:10;16.33;;;11.00;;
9597;SDS011;4837;50.890;4.724;2023-07-22T04:30:37;16.33;;;11.23;;
9597;SDS011;4837;50.890;4.724;2023-07-22T04:33:05;15.48;;;11.38;;
9597;SDS011;4837;50.890;4.724;2023-07-22T04:35:31;14.18;;;10.57;;
9597;SDS011;4837;50.890;4.724;2023-07-22T04:37:58;14.73;;;10.52;;
9597;SDS011;4837;50.890;4.724;2023-07-22T04:40:24;17.92;;;11.05;;
9597;SDS011;4837;50.890;4.724;2023-07-22T04:42:50;17.13;;;10.27;;
9597;SDS011;4837;50.890;4.724;2023-07-22T04:45:16;18.95;;;10.15;;
9597;SDS011;4837;50.890;4.724;2023-07-22T04:47:46;16.13;;;10.80;;
9597;SDS011;4837;50.890;4.724;2023-07-22T04:50:14;14.02;;;10.30;;
9597;SDS011;4837;50.890;4.724;2023-07-22T04:52:42;14.25;;;10.27;;
9597;SDS011;4837;50.890;4.724;2023-07-22T04:55:08;14.90;;;10.18;;
9597;SDS011;4837;50.890;4.724;2023-07-22T04:57:35;16.15;;;10.18;;
9597;SDS011;4837;50.890;4.724;2023-07-22T05:00:04;16.13;;;10.32;;
9597;SDS011;4837;50.890;4.724;2023-07-22T05:02:31;16.10;;;10.40;;
9597;SDS011;4837;50.890;4.724;2023-07-22T05:04:57;16.02;;;11.02;;
9597;SDS011;4837;50.890;4.724;2023-07-22T05:07:23;14.75;;;9.73;;
9597;SDS011;4837;50.890;4.724;2023-07-22T05:09:49;16.27;;;10.45;;
9597;SDS011;4837;50.890;4.724;2023-07-22T05:12:17;17.25;;;10.75;;
9597;SDS011;4837;50.890;4.724;2023-07-22T05:14:44;18.60;;;11.05;;
9597;SDS011;4837;50.890;4.724;2023-07-22T05:17:11;15.88;;;10.75;;
9597;SDS011;4837;50.890;4.724;2023-07-22T05:19:37;15.20;;;10.43;;
9597;SDS011;4837;50.890;4.724;2023-07-22T05:22:03;16.60;;;10.38;;
9597;SDS011;4837;50.890;4.724;2023-07-22T05:24:29;15.30;;;9.82;;
9597;SDS011;4837;50.890;4.724;2023-07-22T05:26:55;16.65;;;10.52;;
9597;SDS011;4837;50.890;4.724;2023-07-22T05:29:22;15.80;;;9.85;;
9597;SDS011;4837;50.890;4.724;2023-07-22T05:31:48;15.77;;;10.40;;
9597;SDS011;4837;50.890;4.724;2023-07-22T05:34:14;15.70;;;10.38;;
9597;SDS011;4837;50.890;4.724;2023-07-22T05:36:40;15.30;;;9.45;;
9597;SDS011;4837;50.890;4.724;2023-07-22T05:39:06;15.02;;;9.55;;
9597;SDS011;4837;50.890;4.724;2023-07-22T05:41:33;13.07;;;8.95;;
9597;SDS011;4837;50.890;4.724;2023-07-22T05:43:59;18.88;;;10.05;;
9597;SDS011;4837;50.890;4.724;2023-07-22T05:46:26;13.90;;;8.77;;
9597;SDS011;4837;50.890;4.724;2023-07-22T05:48:52;15.38;;;9.77;;
9597;SDS011;4837;50.890;4.724;2023-07-22T05:51:18;13.25;;;9.23;;
9597;SDS011;4837;50.890;4.724;2023-07-22T05:53:44;16.25;;;9.55;;
9597;SDS011;4837;50.890;4.724;2023-07-22T05:56:10;17.60;;;10.30;;
9597;SDS011;4837;50.890;4.724;2023-07-22T05:58:36;13.73;;;10.27;;
9597;SDS011;4837;50.890;4.724;2023-07-22T06:01:03;16.17;;;9.57;;
9597;SDS011;4837;50.890;4.724;2023-07-22T06:03:29;14.63;;;9.10;;
9597;SDS011;4837;50.890;4.724;2023-07-22T06:05:55;11.88;;;8.38;;
9597;SDS011;4837;50.890;4.724;2023-07-22T06:08:21;14.55;;;8.23;;
9597;SDS011;4837;50.890;4.724;2023-07-22T06:10:47;13.95;;;9.00;;
9597;SDS011;4837;50.890;4.724;2023-07-22T06:13:13;10.80;;;8.10;;
9597;SDS011;4837;50.890;4.724;2023-07-22T06:15:39;15.35;;;8.52;;
9597;SDS011;4837;50.890;4.724;2023-07-22T06:18:06;11.32;;;8.45;;
9597;SDS011;4837;50.890;4.724;2023-07-22T06:20:34;14.52;;;8.07;;
9597;SDS011;4837;50.890;4.724;2023-07-22T06:23:01;14.15;;;8.40;;
9597;SDS011;4837;50.890;4.724;2023-07-22T06:25:27;12.13;;;8.23;;
9597;SDS011;4837;50.890;4.724;2023-07-22T06:27:53;15.70;;;8.02;;
9597;SDS011;4837;50.890;4.724;2023-07-22T06:30:19;10.65;;;7.32;;
9597;SDS011;4837;50.890;4.724;2023-07-22T06:32:45;13.75;;;8.07;;
9597;SDS011;4837;50.890;4.724;2023-07-22T06:35:12;14.25;;;8.93;;
9597;SDS011;4837;50.890;4.724;2023-07-22T06:37:38;13.68;;;7.72;;
9597;SDS011;4837;50.890;4.724;2023-07-22T06:40:06;15.80;;;7.07;;
9597;SDS011;4837;50.890;4.724;2023-07-22T06:42:32;12.15;;;7.80;;
9597;SDS011;4837;50.890;4.724;2023-07-22T06:44:58;13.13;;;7.50;;
9597;SDS011;4837;50.890;4.724;2023-07-22T06:47:25;30.17;;;17.92;;
9597;SDS011;4837;50.890;4.724;2023-07-22T06:49:51;9.90;;;6.75;;
9597;SDS011;4837;50.890;4.724;2023-07-22T06:52:17;12.10;;;8.18;;
9597;SDS011;4837;50.890;4.724;2023-07-22T06:54:43;10.30;;;7.10;;
9597;SDS011;4837;50.890;4.724;2023-07-22T06:57:10;14.80;;;7.15;;
9597;SDS011;4837;50.890;4.724;2023-07-22T06:59:36;10.15;;;6.43;;
9597;SDS011;4837;50.890;4.724;2023-07-22T07:02:05;14.15;;;7.20;;
9597;SDS011;4837;50.890;4.724;2023-07-22T07:04:31;11.07;;;6.60;;
9597;SDS011;4837;50.890;4.724;2023-07-22T07:06:58;12.30;;;7.00;;
9597;SDS011;4837;50.890;4.724;2023-07-22T07:09:24;9.73;;;6.50;;
9597;SDS011;4837;50.890;4.724;2023-07-22T07:11:50;12.10;;;7.20;;
9597;SDS011;4837;50.890;4.724;2023-07-22T07:14:17;12.00;;;6.93;;
9597;SDS011;4837;50.890;4.724;2023-07-22T07:16:43;14.30;;;7.05;;
9597;SDS011;4837;50.890;4.724;2023-07-22T07:19:10;9.50;;;6.78;;
9597;SDS011;4837;50.890;4.724;2023-07-22T07:21:36;11.18;;;6.30;;
9597;SDS011;4837;50.890;4.724;2023-07-22T07:24:02;10.63;;;6.68;;
9597;SDS011;4837;50.890;4.724;2023-07-22T07:26:28;13.80;;;6.72;;
9597;SDS011;4837;50.890;4.724;2023-07-22T07:28:54;9.75;;;6.00;;
9597;SDS011;4837;50.890;4.724;2023-07-22T07:31:20;9.35;;;5.60;;
9597;SDS011;4837;50.890;4.724;2023-07-22T07:33:47;8.82;;;5.88;;
9597;SDS011;4837;50.890;4.724;2023-07-22T07:36:13;11.60;;;6.03;;
9597;SDS011;4837;50.890;4.724;2023-07-22T07:38:40;10.20;;;5.60;;
9597;SDS011;4837;50.890;4.724;2023-07-22T07:41:07;7.85;;;5.30;;
9597;SDS011;4837;50.890;4.724;2023-07-22T07:43:36;7.75;;;4.80;;
9597;SDS011;4837;50.890;4.724;2023-07-22T07:48:46;6.93;;;5.20;;
9597;SDS011;4837;50.890;4.724;2023-07-22T07:51:13;6.78;;;4.50;;
9597;SDS011;4837;50.890;4.724;2023-07-22T07:53:40;8.32;;;4.95;;
9597;SDS011;4837;50.890;4.724;2023-07-22T07:56:07;6.45;;;4.60;;
9597;SDS011;4837;50.890;4.724;2023-07-22T07:58:33;7.55;;;4.97;;
9597;SDS011;4837;50.890;4.724;2023-07-22T08:00:59;7.95;;;4.40;;
9597;SDS011;4837;50.890;4.724;2023-07-22T08:03:25;7.40;;;4.50;;
9597;SDS011;4837;50.890;4.724;2023-07-22T08:05:52;6.75;;;4.65;;
9597;SDS011;4837;50.890;4.724;2023-07-22T08:08:18;8.40;;;4.43;;
9597;SDS011;4837;50.890;4.724;2023-07-22T08:10:44;9.40;;;4.78;;
9597;SDS011;4837;50.890;4.724;2023-07-22T08:13:10;7.00;;;4.40;;
9597;SDS011;4837;50.890;4.724;2023-07-22T08:15:36;7.20;;;4.25;;
9597;SDS011;4837;50.890;4.724;2023-07-22T08:18:03;6.35;;;4.03;;
9597;SDS011;4837;50.890;4.724;2023-07-22T08:20:29;7.15;;;3.90;;
9597;SDS011;4837;50.890;4.724;2023-07-22T08:22:55;6.63;;;4.05;;
9597;SDS011;4837;50.890;4.724;2023-07-22T08:25:22;7.70;;;3.92;;
9597;SDS011;4837;50.890;4.724;2023-07-22T08:27:48;8.38;;;4.07;;
9597;SDS011;4837;50.890;4.724;2023-07-22T08:30:14;7.15;;;3.83;;
9597;SDS011;4837;50.890;4.724;2023-07-22T08:32:40;6.85;;;3.95;;
9597;SDS011;4837;50.890;4.724;2023-07-22T08:35:06;4.82;;;3.08;;
9597;SDS011;4837;50.890;4.724;2023-07-22T08:37:33;9.93;;;3.58;;
9597;SDS011;4837;50.890;4.724;2023-07-22T08:39:59;7.38;;;3.38;;
9597;SDS011;4837;50.890;4.724;2023-07-22T08:42:25;6.00;;;3.15;;
9597;SDS011;4837;50.890;4.724;2023-07-22T08:44:54;5.97;;;3.20;;
9597;SDS011;4837;50.890;4.724;2023-07-22T08:47:22;4.80;;;2.92;;
9597;SDS011;4837;50.890;4.724;2023-07-22T08:49:50;4.63;;;2.65;;
9597;SDS011;4837;50.890;4.724;2023-07-22T08:52:17;7.07;;;3.30;;
9597;SDS011;4837;50.890;4.724;2023-07-22T08:54:44;4.18;;;2.50;;
9597;SDS011;4837;50.890;4.724;2023-07-22T08:57:11;4.07;;;2.80;;
9597;SDS011;4837;50.890;4.724;2023-07-22T08:59:37;5.78;;;2.92;;
9597;SDS011;4837;50.890;4.724;2023-07-22T09:02:04;6.35;;;2.85;;
9597;SDS011;4837;50.890;4.724;2023-07-22T09:04:30;4.82;;;2.63;;
9597;SDS011;4837;50.890;4.724;2023-07-22T09:06:56;3.83;;;2.63;;
9597;SDS011;4837;50.890;4.724;2023-07-22T09:09:24;4.32;;;2.88;;
9597;SDS011;4837;50.890;4.724;2023-07-22T09:11:51;3.55;;;2.47;;
9597;SDS011;4837;50.890;4.724;2023-07-22T09:14:18;5.60;;;2.53;;
9597;SDS011;4837;50.890;4.724;2023-07-22T09:16:45;5.43;;;2.75;;
9597;SDS011;4837;50.890;4.724;2023-07-22T09:19:11;4.45;;;2.50;;
9597;SDS011;4837;50.890;4.724;2023-07-22T09:21:37;6.47;;;2.38;;
9597;SDS011;4837;50.890;4.724;2023-07-22T09:24:23;5.78;;;2.72;;
9597;SDS011;4837;50.890;4.724;2023-07-22T09:26:50;5.68;;;2.45;;
9597;SDS011;4837;50.890;4.724;2023-07-22T09:29:16;4.22;;;2.67;;
9597;SDS011;4837;50.890;4.724;2023-07-22T09:31:50;3.58;;;2.42;;
9597;SDS011;4837;50.890;4.724;2023-07-22T09:34:16;6.40;;;2.33;;
9597;SDS011;4837;50.890;4.724;2023-07-22T09:36:50;4.15;;;2.40;;
9597;SDS011;4837;50.890;4.724;2023-07-22T09:39:17;4.57;;;2.40;;
9597;SDS011;4837;50.890;4.724;2023-07-22T09:41:43;2.80;;;2.50;;
9597;SDS011;4837;50.890;4.724;2023-07-22T09:44:10;4.97;;;2.47;;
9597;SDS011;4837;50.890;4.724;2023-07-22T09:46:41;3.58;;;2.40;;
9597;SDS011;4837;50.890;4.724;2023-07-22T09:49:08;3.28;;;2.50;;
9597;SDS011;4837;50.890;4.724;2023-07-22T09:51:36;3.33;;;2.50;;
9597;SDS011;4837;50.890;4.724;2023-07-22T09:54:02;3.83;;;2.65;;
9597;SDS011;4837;50.890;4.724;2023-07-22T09:56:29;3.97;;;2.42;;
9597;SDS011;4837;50.890;4.724;2023-07-22T09:58:55;3.35;;;2.17;;
9597;SDS011;4837;50.890;4.724;2023-07-22T10:01:23;4.20;;;2.47;;
9597;SDS011;4837;50.890;4.724;2023-07-22T10:03:51;5.57;;;2.22;;
9597;SDS011;4837;50.890;4.724;2023-07-22T10:06:20;4.72;;;2.60;;
9597;SDS011;4837;50.890;4.724;2023-07-22T10:08:46;2.95;;;2.15;;
9597;SDS011;4837;50.890;4.724;2023-07-22T10:11:13;3.72;;;2.55;;
9597;SDS011;4837;50.890;4.724;2023-07-22T10:13:40;4.90;;;2.60;;
9597;SDS011;4837;50.890;4.724;2023-07-22T10:16:07;3.03;;;2.05;;
9597;SDS011;4837;50.890;4.724;2023-07-22T10:18:33;3.92;;;2.40;;
9597;SDS011;4837;50.890;4.724;2023-07-22T10:20:59;9.45;;;2.80;;
9597;SDS011;4837;50.890;4.724;2023-07-22T10:23:26;6.03;;;2.10;;
9597;SDS011;4837;50.890;4.724;2023-07-22T10:25:53;9.43;;;2.20;;
9597;SDS011;4837;50.890;4.724;2023-07-22T10:28:20;6.82;;;2.55;;
9597;SDS011;4837;50.890;4.724;2023-07-22T10:30:46;9.02;;;2.53;;
9597;SDS011;4837;50.890;4.724;2023-07-22T10:33:12;9.75;;;2.60;;
9597;SDS011;4837;50.890;4.724;2023-07-22T10:35:43;4.78;;;2.65;;
9597;SDS011;4837;50.890;4.724;2023-07-22T10:43:11;6.60;;;2.30;;
9597;SDS011;4837;50.890;4.724;2023-07-22T10:45:41;4.35;;;1.88;;
9597;SDS011;4837;50.890;4.724;2023-07-22T10:48:11;3.28;;;2.00;;
9597;SDS011;4837;50.890;4.724;2023-07-22T10:50:38;3.85;;;2.10;;
9597;SDS011;4837;50.890;4.724;2023-07-22T10:53:06;3.45;;;1.77;;
9597;SDS011;4837;50.890;4.724;2023-07-22T10:55:32;4.53;;;1.75;;
9597;SDS011;4837;50.890;4.724;2023-07-22T10:58:03;6.07;;;1.80;;
9597;SDS011;4837;50.890;4.724;2023-07-22T11:00:30;3.67;;;1.80;;
9597;SDS011;4837;50.890;4.724;2023-07-22T11:03:13;3.70;;;1.83;;
9597;SDS011;4837;50.890;4.724;2023-07-22T11:05:50;2.47;;;1.70;;
9597;SDS011;4837;50.890;4.724;2023-07-22T11:08:34;5.22;;;2.30;;
9597;SDS011;4837;50.890;4.724;2023-07-22T11:11:02;2.53;;;1.92;;
9597;SDS011;4837;50.890;4.724;2023-07-22T11:13:28;3.28;;;2.10;;
9597;SDS011;4837;50.890;4.724;2023-07-22T11:15:58;2.97;;;1.98;;
9597;SDS011;4837;50.890;4.724;2023-07-22T11:18:39;2.13;;;1.70;;
9597;SDS011;4837;50.890;4.724;2023-07-22T11:21:09;2.67;;;1.90;;
9597;SDS011;4837;50.890;4.724;2023-07-22T11:23:35;5.50;;;1.77;;
9597;SDS011;4837;50.890;4.724;2023-07-22T11:26:02;7.68;;;2.40;;
9597;SDS011;4837;50.890;4.724;2023-07-22T11:28:29;5.55;;;2.30;;
9597;SDS011;4837;50.890;4.724;2023-07-22T11:30:55;14.13;;;2.10;;
9597;SDS011;4837;50.890;4.724;2023-07-22T11:33:23;3.50;;;1.83;;
9597;SDS011;4837;50.890;4.724;2023-07-22T11:35:50;3.00;;;1.90;;
9597;SDS011;4837;50.890;4.724;2023-07-22T11:38:16;2.30;;;1.80;;
9597;SDS011;4837;50.890;4.724;2023-07-22T11:40:42;2.42;;;1.95;;
9597;SDS011;4837;50.890;4.724;2023-07-22T11:43:08;4.18;;;1.90;;
9597;SDS011;4837;50.890;4.724;2023-07-22T11:45:37;2.42;;;1.73;;
9597;SDS011;4837;50.890;4.724;2023-07-22T11:48:08;2.70;;;1.80;;
9597;SDS011;4837;50.890;4.724;2023-07-22T11:50:35;2.20;;;1.80;;
9597;SDS011;4837;50.890;4.724;2023-07-22T11:53:01;2.17;;;1.88;;
9597;SDS011;4837;50.890;4.724;2023-07-22T11:55:27;2.42;;;1.83;;
9597;SDS011;4837;50.890;4.724;2023-07-22T11:57:53;3.25;;;1.77;;
9597;SDS011;4837;50.890;4.724;2023-07-22T12:00:20;2.72;;;2.00;;
9597;SDS011;4837;50.890;4.724;2023-07-22T12:02:46;3.15;;;1.98;;
9597;SDS011;4837;50.890;4.724;2023-07-22T12:05:20;2.53;;;2.30;;
9597;SDS011;4837;50.890;4.724;2023-07-22T12:07:46;4.95;;;2.10;;
9597;SDS011;4837;50.890;4.724;2023-07-22T12:10:12;2.65;;;1.95;;
9597;SDS011;4837;50.890;4.724;2023-07-22T12:12:42;2.95;;;2.15;;
9597;SDS011;4837;50.890;4.724;2023-07-22T12:15:19;2.53;;;2.10;;
9597;SDS011;4837;50.890;4.724;2023-07-22T12:17:56;3.42;;;2.10;;
9597;SDS011;4837;50.890;4.724;2023-07-22T12:20:33;2.70;;;2.03;;
9597;SDS011;4837;50.890;4.724;2023-07-22T12:23:00;3.00;;;2.28;;
9597;SDS011;4837;50.890;4.724;2023-07-22T12:25:27;3.40;;;2.55;;
9597;SDS011;4837;50.890;4.724;2023-07-22T12:27:53;2.80;;;2.22;;
9597;SDS011;4837;50.890;4.724;2023-07-22T12:30:20;2.85;;;2.25;;
9597;SDS011;4837;50.890;4.724;2023-07-22T12:32:46;3.03;;;2.30;;
9597;SDS011;4837;50.890;4.724;2023-07-22T12:35:13;4.63;;;2.30;;
9597;SDS011;4837;50.890;4.724;2023-07-22T12:37:39;2.17;;;1.83;;
9597;SDS011;4837;50.890;4.724;2023-07-22T12:40:05;4.85;;;2.20;;
9597;SDS011;4837;50.890;4.724;2023-07-22T12:42:33;3.33;;;2.08;;
9597;SDS011;4837;50.890;4.724;2023-07-22T12:44:59;3.30;;;2.03;;
9597;SDS011;4837;50.890;4.724;2023-07-22T12:47:26;3.53;;;2.00;;
9597;SDS011;4837;50.890;4.724;2023-07-22T12:49:52;3.83;;;2.08;;
9597;SDS011;4837;50.890;4.724;2023-07-22T12:52:18;1.92;;;1.60;;
9597;SDS011;4837;50.890;4.724;2023-07-22T12:54:44;2.67;;;2.00;;
9597;SDS011;4837;50.890;4.724;2023-07-22T12:57:10;3.95;;;2.22;;
9597;SDS011;4837;50.890;4.724;2023-07-22T12:59:36;3.15;;;2.00;;
9597;SDS011;4837;50.890;4.724;2023-07-22T13:02:03;2.20;;;2.00;;
9597;SDS011;4837;50.890;4.724;2023-07-22T13:04:29;5.68;;;2.08;;
9597;SDS011;4837;50.890;4.724;2023-07-22T13:06:55;2.67;;;1.80;;
9597;SDS011;4837;50.890;4.724;2023-07-22T13:09:21;2.58;;;1.98;;
9597;SDS011;4837;50.890;4.724;2023-07-22T13:11:47;2.33;;;1.88;;
9597;SDS011;4837;50.890;4.724;2023-07-22T13:14:14;2.83;;;2.05;;
9597;SDS011;4837;50.890;4.724;2023-07-22T13:16:40;2.38;;;1.98;;
9597;SDS011;4837;50.890;4.724;2023-07-22T13:19:06;1.90;;;1.70;;
9597;SDS011;4837;50.890;4.724;2023-07-22T13:21:33;2.65;;;1.70;;
9597;SDS011;4837;50.890;4.724;2023-07-22T13:23:59;3.22;;;1.98;;
9597;SDS011;4837;50.890;4.724;2023-07-22T13:26:25;2.63;;;1.80;;
9597;SDS011;4837;50.890;4.724;2023-07-22T13:28:51;1.70;;;1.40;;
9597;SDS011;4837;50.890;4.724;2023-07-22T13:31:18;1.90;;;1.60;;
9597;SDS011;4837;50.890;4.724;2023-07-22T13:33:44;2.25;;;1.63;;
9597;SDS011;4837;50.890;4.724;2023-07-22T13:36:10;1.70;;;1.60;;
9597;SDS011;4837;50.890;4.724;2023-07-22T13:38:37;6.25;;;1.88;;
9597;SDS011;4837;50.890;4.724;2023-07-22T13:41:03;2.53;;;1.60;;
9597;SDS011;4837;50.890;4.724;2023-07-22T13:43:29;3.00;;;1.60;;
9597;SDS011;4837;50.890;4.724;2023-07-22T13:45:56;2.42;;;1.70;;
9597;SDS011;4837;50.890;4.724;2023-07-22T13:48:23;2.28;;;1.52;;
9597;SDS011;4837;50.890;4.724;2023-07-22T13:50:49;3.17;;;1.30;;
9597;SDS011;4837;50.890;4.724;2023-07-22T13:53:15;3.05;;;1.60;;
9597;SDS011;4837;50.890;4.724;2023-07-22T13:55:41;1.80;;;1.58;;
9597;SDS011;4837;50.890;4.724;2023-07-22T13:58:08;2.95;;;1.42;;
9597;SDS011;4837;50.890;4.724;2023-07-22T14:00:34;3.85;;;1.77;;
9597;SDS011;4837;50.890;4.724;2023-07-22T14:03:01;2.17;;;1.60;;
9597;SDS011;4837;50.890;4.724;2023-07-22T14:05:27;2.03;;;1.67;;
9597;SDS011;4837;50.890;4.724;2023-07-22T14:07:53;2.15;;;1.80;;
9597;SDS011;4837;50.890;4.724;2023-07-22T14:10:19;3.42;;;1.67;;
9597;SDS011;4837;50.890;4.724;2023-07-22T14:12:45;3.78;;;1.83;;
9597;SDS011;4837;50.890;4.724;2023-07-22T14:15:12;4.22;;;1.52;;
9597;SDS011;4837;50.890;4.724;2023-07-22T14:17:38;2.90;;;1.67;;
9597;SDS011;4837;50.890;4.724;2023-07-22T14:20:04;2.33;;;1.80;;
9597;SDS011;4837;50.890;4.724;2023-07-22T14:22:32;3.40;;;1.95;;
9597;SDS011;4837;50.890;4.724;2023-07-22T14:24:58;3.22;;;2.15;;
9597;SDS011;4837;50.890;4.724;2023-07-22T14:27:24;2.88;;;1.98;;
9597;SDS011;4837;50.890;4.724;2023-07-22T14:29:50;3.20;;;2.00;;
9597;SDS011;4837;50.890;4.724;2023-07-22T14:32:16;2.97;;;2.00;;
9597;SDS011;4837;50.890;4.724;2023-07-22T14:34:43;2.88;;;1.98;;
9597;SDS011;4837;50.890;4.724;2023-07-22T14:37:09;2.35;;;2.15;;
9597;SDS011;4837;50.890;4.724;2023-07-22T14:39:35;1.73;;;1.60;;
9597;SDS011;4837;50.890;4.724;2023-07-22T14:42:01;4.82;;;2.10;;
9597;SDS011;4837;50.890;4.724;2023-07-22T14:44:27;2.50;;;2.17;;
9597;SDS011;4837;50.890;4.724;2023-07-22T14:46:53;2.90;;;2.13;;
9597;SDS011;4837;50.890;4.724;2023-07-22T14:49:19;3.67;;;1.67;;
9597;SDS011;4837;50.890;4.724;2023-07-22T14:51:46;2.75;;;1.90;;
9597;SDS011;4837;50.890;4.724;2023-07-22T14:54:12;4.15;;;2.00;;
9597;SDS011;4837;50.890;4.724;2023-07-22T14:56:38;5.55;;;1.63;;
9597;SDS011;4837;50.890;4.724;2023-07-22T14:59:04;2.47;;;1.88;;
9597;SDS011;4837;50.890;4.724;2023-07-22T15:01:37;3.17;;;2.00;;
9597;SDS011;4837;50.890;4.724;2023-07-22T15:04:03;3.67;;;1.90;;
9597;SDS011;4837;50.890;4.724;2023-07-22T15:06:30;2.85;;;1.95;;
9597;SDS011;4837;50.890;4.724;2023-07-22T15:08:56;4.57;;;1.88;;
9597;SDS011;4837;50.890;4.724;2023-07-22T15:11:22;4.00;;;1.80;;
9597;SDS011;4837;50.890;4.724;2023-07-22T15:13:48;2.88;;;1.90;;